Time;durP1;ratioP1;P1;durP2;ratioP2;P2;SDS_P1;SDS_P2;PMS_P1;PMS_P2;Temp;Humidity;BMP_temperature;BMP_pressure;BME280_temperature;BME280_humidity;BME280_pressure;Samples;Min_cycle;Max_cycle;Signal;HPM_P1;HPM_P2
2022/07/11 00:07:11;;;;;;;1.25;0.25;;;17.00;99.90;;;;;;20871086;28;20558;-81
2022/07/11 00:17:12;;;;;;;0.73;0.22;;;17.00;99.90;;;;;;20816341;28;21795;-81
2022/07/11 00:27:13;;;;;;;0.45;0.25;;;17.10;99.90;;;;;;20786016;28;20289;-81
2022/07/11 00:37:14;;;;;;;0.70;0.30;;;17.10;99.90;;;;;;20778170;28;20091;-81
2022/07/11 00:47:15;;;;;;;1.05;0.40;;;17.10;99.90;;;;;;20775407;28;20099;-81
2022/07/11 00:57:16;;;;;;;1.05;0.30;;;17.20;99.90;;;;;;20786450;28;20037;-81
2022/07/11 01:07:17;;;;;;;1.02;0.30;;;17.10;99.90;;;;;;20818195;28;20824;-80
2022/07/11 01:17:19;;;;;;;0.65;0.25;;;17.10;99.90;;;;;;20811420;28;20507;-81
2022/07/11 01:27:22;;;;;;;0.40;0.20;;;17.10;99.90;;;;;;20822976;28;20069;-80
2022/07/11 01:37:23;;;;;;;0.63;0.30;;;17.00;99.90;;;;;;20828200;28;20049;-81
2022/07/11 01:47:24;;;;;;;0.93;0.20;;;17.00;99.90;;;;;;20804387;28;20581;-80
2022/07/11 01:57:25;;;;;;;0.57;0.13;;;16.90;99.90;;;;;;20790821;28;20044;-81
2022/07/11 02:17:46;;;;;;;0.50;0.20;;;16.90;99.90;;;;;;20803430;28;20049;-80
2022/07/11 02:27:47;;;;;;;0.77;0.20;;;16.90;99.90;;;;;;20814119;28;20041;-81
2022/07/11 02:37:48;;;;;;;0.88;0.30;;;16.90;99.90;;;;;;20788868;28;20073;-81
2022/07/11 02:47:50;;;;;;;0.82;0.15;;;16.90;99.90;;;;;;20794225;28;20045;-81
2022/07/11 02:57:51;;;;;;;0.60;0.20;;;16.80;99.90;;;;;;20786427;28;20647;-81
2022/07/11 03:07:52;;;;;;;1.00;0.20;;;16.90;99.90;;;;;;20773808;28;20041;-81
2022/07/11 03:17:53;;;;;;;0.63;0.22;;;16.90;99.90;;;;;;20792370;28;20039;-81
2022/07/11 03:27:54;;;;;;;2.10;0.22;;;17.00;99.90;;;;;;20787631;28;20135;-81
2022/07/11 03:37:55;;;;;;;1.33;0.22;;;17.00;99.90;;;;;;20776419;28;20060;-81
2022/07/11 03:47:56;;;;;;;0.70;0.20;;;16.90;99.90;;;;;;20808601;28;20045;-81
2022/07/11 03:57:57;;;;;;;0.60;0.30;;;16.90;99.90;;;;;;20775803;28;20045;-81
2022/07/11 04:07:58;;;;;;;0.90;0.30;;;17.00;99.90;;;;;;20782190;28;20061;-81
2022/07/11 04:17:59;;;;;;;0.57;0.20;;;16.90;99.90;;;;;;20774487;28;20656;-80
2022/07/11 04:28:01;;;;;;;1.20;0.30;;;16.90;99.90;;;;;;20779810;28;20304;-81
2022/07/11 04:38:02;;;;;;;1.60;0.50;;;17.00;99.90;;;;;;20785720;28;20037;-80
2022/07/11 04:48:03;;;;;;;1.88;0.50;;;17.00;99.90;;;;;;20784970;28;20068;-80
2022/07/11 04:58:04;;;;;;;1.65;0.63;;;17.00;99.90;;;;;;20806098;28;20083;-81
2022/07/11 05:08:05;;;;;;;1.50;0.98;;;16.90;99.90;;;;;;20768202;28;20033;-81
2022/07/11 05:18:06;;;;;;;1.40;0.65;;;16.90;99.90;;;;;;20853373;28;20059;-80
2022/07/11 05:28:07;;;;;;;2.25;0.90;;;16.80;99.90;;;;;;20870852;28;20072;-80
2022/07/11 05:38:08;;;;;;;1.73;0.45;;;16.80;99.90;;;;;;20868769;28;20752;-81
2022/07/11 05:48:09;;;;;;;1.38;0.57;;;16.80;99.90;;;;;;20858349;28;20060;-81
2022/07/11 05:58:10;;;;;;;1.27;0.55;;;16.90;99.90;;;;;;20867451;28;20372;-80
2022/07/11 06:18:31;;;;;;;1.48;0.43;;;16.80;99.90;;;;;;20858872;28;20659;-81
2022/07/11 06:28:32;;;;;;;6.10;0.38;;;16.90;99.90;;;;;;20858734;28;20065;-81
2022/07/11 06:38:34;;;;;;;0.88;0.20;;;16.90;99.90;;;;;;20865029;28;20129;-80
2022/07/11 06:48:35;;;;;;;0.85;0.20;;;17.00;99.90;;;;;;20874078;28;21167;-80
2022/07/11 06:58:36;;;;;;;0.65;0.20;;;17.10;99.90;;;;;;20863820;28;20131;-81
2022/07/11 07:08:37;;;;;;;0.55;0.30;;;17.20;99.90;;;;;;20877006;28;20087;-80
2022/07/11 07:18:41;;;;;;;0.95;0.60;;;17.30;99.90;;;;;;20876800;28;20086;-79
2022/07/11 07:28:42;;;;;;;1.20;0.30;;;17.20;99.90;;;;;;20867959;28;21255;-80
2022/07/11 07:38:46;;;;;;;0.85;0.20;;;17.40;99.90;;;;;;20880686;28;20435;-80
2022/07/11 07:48:47;;;;;;;0.52;0.10;;;17.40;99.90;;;;;;20891427;28;20106;-80
2022/07/11 07:58:48;;;;;;;0.57;0.10;;;17.30;99.90;;;;;;20881372;28;20094;-80
2022/07/11 08:08:49;;;;;;;0.25;0.10;;;17.30;99.90;;;;;;20892311;28;20028;-80
2022/07/11 08:18:53;;;;;;;0.25;0.10;;;17.60;99.90;;;;;;20901739;28;20149;-80
2022/07/11 08:28:54;;;;;;;0.20;0.10;;;17.80;99.90;;;;;;20874478;28;21729;-80
2022/07/11 08:38:55;;;;;;;0.20;0.10;;;17.90;99.90;;;;;;20879031;28;20099;-81
2022/07/11 08:48:59;;;;;;;0.08;0.00;;;18.00;99.90;;;;;;20888103;28;20367;-82
2022/07/11 08:59:00;;;;;;;0.10;0.10;;;18.00;99.90;;;;;;20895250;28;20159;-82
2022/07/11 09:09:01;;;;;;;0.25;0.10;;;18.10;99.90;;;;;;20865418;28;20041;-80
2022/07/11 09:19:20;;;;;;;0.15;0.00;;;18.10;99.90;;;;;;20893419;28;20033;-79
2022/07/11 09:29:25;;;;;;;0.20;0.00;;;18.10;99.90;;;;;;20873555;28;20568;-80
2022/07/11 09:39:28;;;;;;;5.38;0.10;;;18.20;99.90;;;;;;20884424;28;20162;-79
2022/07/11 09:49:35;;;;;;;0.08;0.00;;;18.40;99.90;;;;;;20875890;28;20037;-80
2022/07/11 09:59:37;;;;;;;0.40;0.00;;;18.40;99.90;;;;;;20888986;28;20063;-80
2022/07/11 10:09:38;;;;;;;0.60;0.20;;;18.60;99.90;;;;;;20871236;28;20041;-80
2022/07/11 10:19:59;;;;;;;0.17;0.03;;;18.70;99.90;;;;;;20906180;28;20476;-80
2022/07/11 10:30:01;;;;;;;0.38;0.00;;;18.90;99.90;;;;;;20905670;28;20360;-80
2022/07/11 10:40:03;;;;;;;0.08;0.00;;;19.10;99.90;;;;;;20863968;28;20040;-80
2022/07/11 10:50:24;;;;;;;0.22;0.10;;;19.30;99.90;;;;;;20880668;28;20565;-79
2022/07/11 11:00:25;;;;;;;0.00;0.00;;;19.30;99.90;;;;;;20882300;28;20086;-79
2022/07/11 11:10:29;;;;;;;0.20;0.03;;;19.50;99.90;;;;;;20880820;28;20056;-79
2022/07/11 11:20:31;;;;;;;0.10;0.08;;;19.60;99.90;;;;;;20883335;28;20040;-79
2022/07/11 11:30:32;;;;;;;0.30;0.10;;;19.70;99.90;;;;;;20885834;28;20483;-79
2022/07/11 11:40:33;;;;;;;0.77;0.10;;;20.00;99.90;;;;;;20859550;28;20144;-79
2022/07/11 11:50:34;;;;;;;0.13;0.05;;;20.20;99.90;;;;;;20886368;28;20055;-79
2022/07/11 12:00:36;;;;;;;0.00;0.00;;;20.30;99.90;;;;;;20830944;28;21703;-79
2022/07/11 12:10:38;;;;;;;0.20;0.10;;;20.30;99.90;;;;;;20878284;28;20036;-78
2022/07/11 12:20:43;;;;;;;0.20;0.10;;;20.30;99.90;;;;;;20875061;28;20040;-79
2022/07/11 12:30:44;;;;;;;1.10;0.28;;;20.60;99.90;;;;;;20896641;28;20086;-79
2022/07/11 12:41:18;;;;;;;0.32;0.10;;;20.50;99.90;;;;;;20869478;28;20076;-79
2022/07/11 12:51:31;;;;;;;0.38;0.08;;;20.70;99.90;;;;;;20838467;28;20676;-79
2022/07/11 13:01:34;;;;;;;0.10;0.05;;;21.10;99.90;;;;;;20878652;28;20051;-78
2022/07/11 13:11:35;;;;;;;0.20;0.10;;;21.50;99.90;;;;;;20891715;28;20041;-78
2022/07/11 13:21:36;;;;;;;0.03;0.00;;;21.40;99.90;;;;;;20861674;28;20037;-79
2022/07/11 13:31:37;;;;;;;0.40;0.10;;;21.50;99.90;;;;;;20889673;28;20033;-79
2022/07/11 13:41:38;;;;;;;0.20;0.00;;;21.70;99.90;;;;;;20880249;28;20043;-79
2022/07/11 13:51:39;;;;;;;0.40;0.10;;;21.80;99.90;;;;;;20891255;28;20106;-79
2022/07/11 14:01:40;;;;;;;0.40;0.20;;;21.70;99.90;;;;;;20876792;28;20049;-79
2022/07/11 14:11:41;;;;;;;0.25;0.08;;;21.80;99.90;;;;;;20895106;28;20044;-79
2022/07/11 14:21:43;;;;;;;0.80;0.15;;;22.20;99.90;;;;;;20884438;28;20048;-79
2022/07/11 14:31:44;;;;;;;0.65;0.65;;;22.30;99.90;;;;;;20908495;28;20105;-78
2022/07/11 14:41:45;;;;;;;0.20;0.00;;;22.70;99.90;;;;;;20868333;28;20090;-78
2022/07/11 14:51:46;;;;;;;2.08;1.00;;;22.90;99.90;;;;;;20888195;28;20033;-79
2022/07/11 15:01:47;;;;;;;0.10;0.05;;;22.90;99.90;;;;;;20868970;28;20040;-83
2022/07/11 15:22:09;;;;;;;0.47;0.28;;;23.00;99.90;;;;;;20885460;28;21739;-79
2022/07/11 15:32:10;;;;;;;4.78;0.20;;;22.80;99.90;;;;;;20884859;28;20091;-79
2022/07/11 15:42:11;;;;;;;0.40;0.17;;;22.90;99.90;;;;;;20869229;28;20094;-79
2022/07/11 15:52:12;;;;;;;2.15;0.75;;;22.80;99.90;;;;;;20894948;28;20033;-80
2022/07/11 16:02:13;;;;;;;0.20;0.13;;;23.10;99.90;;;;;;20895813;28;20041;-80
2022/07/11 16:12:14;;;;;;;0.15;0.10;;;22.90;99.90;;;;;;20861364;28;20041;-78
2022/07/11 16:22:15;;;;;;;0.00;0.00;;;22.70;99.90;;;;;;20896482;28;20036;-78
2022/07/11 16:32:16;;;;;;;0.20;0.10;;;22.80;99.90;;;;;;20857879;28;20898;-78
2022/07/11 16:52:37;;;;;;;0.95;0.20;;;22.80;99.90;;;;;;20875993;28;20032;-77
2022/07/11 17:02:38;;;;;;;0.43;0.20;;;22.70;99.90;;;;;;20890122;28;20537;-77
2022/07/11 17:12:39;;;;;;;1.08;0.57;;;22.50;99.90;;;;;;20855585;28;20108;-78
2022/07/11 17:22:41;;;;;;;0.50;0.13;;;22.40;99.90;;;;;;20867117;28;20056;-78
2022/07/11 17:32:42;;;;;;;0.45;0.10;;;22.30;99.90;;;;;;20860343;28;20064;-77
2022/07/11 17:42:43;;;;;;;0.20;0.17;;;22.30;99.90;;;;;;20868258;28;20102;-77
2022/07/11 17:52:44;;;;;;;0.35;0.10;;;22.20;99.90;;;;;;20866496;28;20032;-77
2022/07/11 18:02:45;;;;;;;0.70;0.25;;;22.10;99.90;;;;;;20874388;28;20044;-77
2022/07/11 18:12:46;;;;;;;0.10;0.03;;;22.10;99.90;;;;;;20891766;28;20029;-78
2022/07/11 18:22:47;;;;;;;0.40;0.10;;;21.90;99.90;;;;;;20885803;28;20090;-77
2022/07/11 18:32:48;;;;;;;0.20;0.10;;;21.90;99.90;;;;;;20881557;28;20113;-78
2022/07/11 18:42:49;;;;;;;0.47;0.13;;;21.80;99.90;;;;;;20877941;28;20052;-77
2022/07/11 18:52:50;;;;;;;0.50;0.10;;;21.60;99.90;;;;;;20889649;28;20068;-77
2022/07/11 19:02:52;;;;;;;0.20;0.10;;;21.60;99.90;;;;;;20877729;28;20072;-77
2022/07/11 19:12:56;;;;;;;0.88;0.47;;;21.40;99.90;;;;;;20880585;28;20036;-78
2022/07/11 19:22:57;;;;;;;0.43;0.13;;;21.40;99.90;;;;;;20895116;28;20121;-78
2022/07/11 19:32:58;;;;;;;0.25;0.10;;;21.20;99.90;;;;;;20892313;28;20028;-78
2022/07/11 19:43:01;;;;;;;0.88;0.28;;;21.00;99.90;;;;;;20879722;28;20103;-78
2022/07/11 19:53:02;;;;;;;0.50;0.20;;;20.80;99.90;;;;;;20878782;28;20519;-78
2022/07/11 20:03:03;;;;;;;0.68;0.30;;;20.60;99.90;;;;;;20868867;28;20068;-78
2022/07/11 20:13:04;;;;;;;0.30;0.10;;;20.40;99.90;;;;;;20891234;28;20060;-82
2022/07/11 20:23:06;;;;;;;0.90;0.25;;;20.20;99.90;;;;;;20857695;28;20178;-78
2022/07/11 20:33:07;;;;;;;0.50;0.28;;;20.00;99.90;;;;;;20843268;28;20060;-77
2022/07/11 20:43:08;;;;;;;1.05;0.40;;;19.80;99.90;;;;;;20845605;28;20068;-78
2022/07/11 20:53:09;;;;;;;0.95;0.10;;;19.70;99.90;;;;;;20869787;28;20029;-78
2022/07/11 21:03:10;;;;;;;1.23;0.50;;;19.40;99.90;;;;;;20903459;28;20045;-78
2022/07/11 21:13:12;;;;;;;0.38;0.17;;;19.40;99.90;;;;;;20864477;28;20045;-78
2022/07/11 21:23:13;;;;;;;0.70;0.30;;;19.20;99.90;;;;;;20869171;28;20119;-78
2022/07/11 21:33:14;;;;;;;0.38;0.10;;;19.10;99.90;;;;;;20875518;28;20202;-79
2022/07/11 21:43:15;;;;;;;0.73;0.10;;;18.90;99.90;;;;;;20861319;28;20044;-79
2022/07/11 21:53:16;;;;;;;0.22;0.10;;;18.80;99.90;;;;;;20874241;28;21757;-78
2022/07/11 22:03:17;;;;;;;1.20;0.40;;;18.60;99.90;;;;;;20877321;28;20041;-78
2022/07/11 22:13:18;;;;;;;0.82;0.30;;;18.40;99.90;;;;;;20898742;28;20025;-78
2022/07/11 22:23:19;;;;;;;1.60;0.60;;;18.30;99.90;;;;;;20889033;28;20044;-78
2022/07/11 22:33:20;;;;;;;1.05;0.30;;;18.20;99.90;;;;;;20873152;28;20052;-78
2022/07/11 22:43:21;;;;;;;0.73;0.10;;;18.00;99.90;;;;;;20882038;28;20037;-78
2022/07/11 22:53:22;;;;;;;2.00;0.30;;;17.90;99.90;;;;;;20871281;28;20040;-79
2022/07/11 23:03:23;;;;;;;1.70;0.38;;;17.80;99.90;;;;;;20892995;28;20056;-79
2022/07/11 23:13:24;;;;;;;0.70;0.30;;;17.70;99.90;;;;;;20882370;28;20041;-79
2022/07/11 23:23:25;;;;;;;1.13;0.50;;;17.50;99.90;;;;;;20881461;28;21834;-79
2022/07/11 23:33:26;;;;;;;0.70;0.40;;;17.40;99.90;;;;;;20872783;28;20051;-79
2022/07/11 23:43:27;;;;;;;0.82;0.22;;;17.40;99.90;;;;;;20868214;28;20107;-79
2022/07/11 23:53:28;;;;;;;1.15;0.50;;;17.30;99.90;;;;;;20882423;28;20037;-79
